sensor_id;sensor_type;location;lat;lon;timestamp;pressure;altitude;pressure_sealevel;temperature
76007;BMP280;64699;0.000;0.000;2022-12-05T00:01:15;101481.63;;;20.14
76007;BMP280;64699;0.000;0.000;2022-12-05T00:03:42;101471.34;;;20.15
76007;BMP280;64699;0.000;0.000;2022-12-05T00:06:07;101475.34;;;20.14
76007;BMP280;64699;0.000;0.000;2022-12-05T00:08:33;101476.09;;;20.14
76007;BMP280;64699;0.000;0.000;2022-12-05T00:10:59;101469.56;;;20.17
76007;BMP280;64699;0.000;0.000;2022-12-05T00:13:24;101480.59;;;20.17
76007;BMP280;64699;0.000;0.000;2022-12-05T00:15:51;101473.34;;;20.14
76007;BMP280;64699;0.000;0.000;2022-12-05T00:18:16;101475.06;;;20.17
76007;BMP280;64699;0.000;0.000;2022-12-05T00:20:45;101477.84;;;20.17
76007;BMP280;64699;0.000;0.000;2022-12-05T00:23:11;101480.59;;;20.17
76007;BMP280;64699;0.000;0.000;2022-12-05T00:25:36;101477.34;;;20.13
76007;BMP280;64699;0.000;0.000;2022-12-05T00:28:02;101471.84;;;20.13
76007;BMP280;64699;0.000;0.000;2022-12-05T00:30:27;101477.84;;;20.17
76007;BMP280;64699;0.000;0.000;2022-12-05T00:32:52;101474.84;;;20.15
76007;BMP280;64699;0.000;0.000;2022-12-05T00:35:18;101486.13;;;20.17
76007;BMP280;64699;0.000;0.000;2022-12-05T00:37:43;101485.06;;;20.20
76007;BMP280;64699;0.000;0.000;2022-12-05T00:40:09;101482.09;;;20.18
76007;BMP280;64699;0.000;0.000;2022-12-05T00:42:35;101471.78;;;20.19
76007;BMP280;64699;0.000;0.000;2022-12-05T00:45:00;101481.28;;;20.23
76007;BMP280;64699;0.000;0.000;2022-12-05T00:47:26;101478.06;;;20.19
76007;BMP280;64699;0.000;0.000;2022-12-05T00:49:51;101477.06;;;20.17
76007;BMP280;64699;0.000;0.000;2022-12-05T00:52:17;101473.28;;;20.20
76007;BMP280;64699;0.000;0.000;2022-12-05T00:54:42;101474.84;;;20.15
76007;BMP280;64699;0.000;0.000;2022-12-05T00:57:08;101481.38;;;20.12
76007;BMP280;64699;0.000;0.000;2022-12-05T00:59:33;101483.63;;;20.14
76007;BMP280;64699;0.000;0.000;2022-12-05T01:01:58;101481.31;;;20.18
76007;BMP280;64699;0.000;0.000;2022-12-05T01:04:24;101474.31;;;20.17
76007;BMP280;64699;0.000;0.000;2022-12-05T01:06:52;101471.06;;;20.18
76007;BMP280;64699;0.000;0.000;2022-12-05T01:09:19;101470.34;;;20.12
76007;BMP280;64699;0.000;0.000;2022-12-05T01:11:44;101466.56;;;20.15
76007;BMP280;64699;0.000;0.000;2022-12-05T01:14:11;101473.53;;;20.16
76007;BMP280;64699;0.000;0.000;2022-12-05T01:16:38;101472.56;;;20.19
76007;BMP280;64699;0.000;0.000;2022-12-05T01:19:06;101462.00;;;20.18
76007;BMP280;64699;0.000;0.000;2022-12-05T01:21:32;101456.72;;;20.20
76007;BMP280;64699;0.000;0.000;2022-12-05T01:23:57;101468.00;;;20.22
76007;BMP280;64699;0.000;0.000;2022-12-05T01:26:23;101462.25;;;20.20
76007;BMP280;64699;0.000;0.000;2022-12-05T01:28:49;101452.69;;;20.21
76007;BMP280;64699;0.000;0.000;2022-12-05T01:33:40;101454.94;;;20.22
76007;BMP280;64699;0.000;0.000;2022-12-05T01:36:08;101448.16;;;20.23
76007;BMP280;64699;0.000;0.000;2022-12-05T01:38:34;101444.38;;;20.26
76007;BMP280;64699;0.000;0.000;2022-12-05T01:41:00;101446.38;;;20.26
76007;BMP280;64699;0.000;0.000;2022-12-05T01:43:26;101434.34;;;20.23
76007;BMP280;64699;0.000;0.000;2022-12-05T01:45:52;101434.88;;;20.22
76007;BMP280;64699;0.000;0.000;2022-12-05T01:48:18;101436.59;;;20.25
76007;BMP280;64699;0.000;0.000;2022-12-05T01:50:44;101422.28;;;20.26
76007;BMP280;64699;0.000;0.000;2022-12-05T01:53:10;101423.09;;;20.21
76007;BMP280;64699;0.000;0.000;2022-12-05T01:55:35;101423.31;;;20.23
76007;BMP280;64699;0.000;0.000;2022-12-05T01:58:01;101429.38;;;20.22
76007;BMP280;64699;0.000;0.000;2022-12-05T02:00:27;101428.09;;;20.23
76007;BMP280;64699;0.000;0.000;2022-12-05T02:02:55;101421.09;;;20.22
76007;BMP280;64699;0.000;0.000;2022-12-05T02:07:46;101426.59;;;20.22
76007;BMP280;64699;0.000;0.000;2022-12-05T02:10:12;101429.88;;;20.20
76007;BMP280;64699;0.000;0.000;2022-12-05T02:12:38;101423.84;;;20.22
76007;BMP280;64699;0.000;0.000;2022-12-05T02:15:08;101420.31;;;20.21
76007;BMP280;64699;0.000;0.000;2022-12-05T02:17:52;101416.06;;;20.20
76007;BMP280;64699;0.000;0.000;2022-12-05T02:20:29;101417.34;;;20.19
76007;BMP280;64699;0.000;0.000;2022-12-05T02:25:42;101413.31;;;20.20
76007;BMP280;64699;0.000;0.000;2022-12-05T02:28:13;101408.03;;;20.22
76007;BMP280;64699;0.000;0.000;2022-12-05T02:30:44;101408.53;;;20.21
76007;BMP280;64699;0.000;0.000;2022-12-05T02:33:19;101411.06;;;20.19
76007;BMP280;64699;0.000;0.000;2022-12-05T02:43:51;101406.81;;;20.18
76007;BMP280;64699;0.000;0.000;2022-12-05T02:46:23;101409.56;;;20.18
76007;BMP280;64699;0.000;0.000;2022-12-05T02:48:51;101406.53;;;20.21
76007;BMP280;64699;0.000;0.000;2022-12-05T02:51:19;101399.31;;;20.18
76007;BMP280;64699;0.000;0.000;2022-12-05T02:53:46;101407.13;;;20.14
76007;BMP280;64699;0.000;0.000;2022-12-05T02:56:12;101408.84;;;20.17
76007;BMP280;64699;0.000;0.000;2022-12-05T02:58:47;101397.56;;;20.15
76007;BMP280;64699;0.000;0.000;2022-12-05T03:01:14;101394.06;;;20.15
76007;BMP280;64699;0.000;0.000;2022-12-05T03:03:41;101381.97;;;20.18
76007;BMP280;64699;0.000;0.000;2022-12-05T03:08:42;101380.19;;;20.20
76007;BMP280;64699;0.000;0.000;2022-12-05T03:11:09;101370.22;;;20.17
76007;BMP280;64699;0.000;0.000;2022-12-05T03:13:37;101363.16;;;20.16
76007;BMP280;64699;0.000;0.000;2022-12-05T03:16:05;101363.63;;;20.20
76007;BMP280;64699;0.000;0.000;2022-12-05T03:18:38;101356.19;;;20.15
76007;BMP280;64699;0.000;0.000;2022-12-05T03:21:24;101365.72;;;20.14
76007;BMP280;64699;0.000;0.000;2022-12-05T03:23:53;101355.94;;;20.13
76007;BMP280;64699;0.000;0.000;2022-12-05T03:31:41;101349.63;;;20.18
76007;BMP280;64699;0.000;0.000;2022-12-05T03:34:11;101345.63;;;20.19
76007;BMP280;64699;0.000;0.000;2022-12-05T03:36:39;101338.13;;;20.14
76007;BMP280;64699;0.000;0.000;2022-12-05T03:39:10;101347.97;;;20.28
76007;BMP280;64699;0.000;0.000;2022-12-05T03:41:40;101349.81;;;20.44
76007;BMP280;64699;0.000;0.000;2022-12-05T03:46:39;101359.16;;;20.60
76007;BMP280;64699;0.000;0.000;2022-12-05T03:51:33;101364.34;;;20.63
76007;BMP280;64699;0.000;0.000;2022-12-05T03:56:29;101393.09;;;20.55
76007;BMP280;64699;0.000;0.000;2022-12-05T03:58:58;101387.84;;;20.51
76007;BMP280;64699;0.000;0.000;2022-12-05T04:01:25;101398.97;;;20.46
76007;BMP280;64699;0.000;0.000;2022-12-05T04:03:53;101403.72;;;20.45
76007;BMP280;64699;0.000;0.000;2022-12-05T04:08:50;101401.66;;;20.51
76007;BMP280;64699;0.000;0.000;2022-12-05T04:11:17;101394.94;;;20.65
76007;BMP280;64699;0.000;0.000;2022-12-05T04:13:46;101387.56;;;20.73
76007;BMP280;64699;0.000;0.000;2022-12-05T04:16:15;101390.31;;;20.73
76007;BMP280;64699;0.000;0.000;2022-12-05T04:19:13;101390.09;;;20.71
76007;BMP280;64699;0.000;0.000;2022-12-05T04:21:40;101378.31;;;20.71
76007;BMP280;64699;0.000;0.000;2022-12-05T04:24:08;101381.78;;;20.71
76007;BMP280;64699;0.000;0.000;2022-12-05T04:26:55;101367.69;;;20.75
76007;BMP280;64699;0.000;0.000;2022-12-05T04:29:26;101354.41;;;20.73
76007;BMP280;64699;0.000;0.000;2022-12-05T04:31:55;101358.47;;;20.72
76007;BMP280;64699;0.000;0.000;2022-12-05T04:34:22;101359.94;;;20.73
76007;BMP280;64699;0.000;0.000;2022-12-05T04:36:56;101344.41;;;20.70
76007;BMP280;64699;0.000;0.000;2022-12-05T04:42:13;101361.97;;;20.73
76007;BMP280;64699;0.000;0.000;2022-12-05T04:44:42;101349.50;;;20.66
76007;BMP280;64699;0.000;0.000;2022-12-05T04:47:08;101364.28;;;20.69
76007;BMP280;64699;0.000;0.000;2022-12-05T04:49:35;101358.78;;;20.69
76007;BMP280;64699;0.000;0.000;2022-12-05T04:52:03;101364.50;;;20.71
76007;BMP280;64699;0.000;0.000;2022-12-05T04:54:42;101361.28;;;20.67
76007;BMP280;64699;0.000;0.000;2022-12-05T04:59:39;101352.47;;;20.68
76007;BMP280;64699;0.000;0.000;2022-12-05T05:02:08;101360.78;;;20.68
76007;BMP280;64699;0.000;0.000;2022-12-05T05:04:47;101347.72;;;20.69
76007;BMP280;64699;0.000;0.000;2022-12-05T05:07:15;101343.22;;;20.66
76007;BMP280;64699;0.000;0.000;2022-12-05T05:09:41;101349.03;;;20.62
76007;BMP280;64699;0.000;0.000;2022-12-05T05:12:07;101347.75;;;20.63
76007;BMP280;64699;0.000;0.000;2022-12-05T05:14:32;101340.13;;;20.56
76007;BMP280;64699;0.000;0.000;2022-12-05T05:16:58;101340.53;;;20.60
76007;BMP280;64699;0.000;0.000;2022-12-05T05:19:23;101356.06;;;20.63
76007;BMP280;64699;0.000;0.000;2022-12-05T05:21:49;101354.13;;;20.58
76007;BMP280;64699;0.000;0.000;2022-12-05T05:24:15;101347.34;;;20.59
76007;BMP280;64699;0.000;0.000;2022-12-05T05:26:41;101360.69;;;20.55
76007;BMP280;64699;0.000;0.000;2022-12-05T05:29:07;101355.47;;;20.52
76007;BMP280;64699;0.000;0.000;2022-12-05T05:31:34;101358.97;;;20.52
76007;BMP280;64699;0.000;0.000;2022-12-05T05:33:59;101377.03;;;20.53
76007;BMP280;64699;0.000;0.000;2022-12-05T05:36:25;101371.28;;;20.51
76007;BMP280;64699;0.000;0.000;2022-12-05T05:38:52;101373.28;;;20.51
76007;BMP280;64699;0.000;0.000;2022-12-05T05:41:19;101369.78;;;20.50
76007;BMP280;64699;0.000;0.000;2022-12-05T05:43:45;101375.31;;;20.50
76007;BMP280;64699;0.000;0.000;2022-12-05T05:46:11;101378.59;;;20.49
76007;BMP280;64699;0.000;0.000;2022-12-05T05:48:36;101372.56;;;20.50
76007;BMP280;64699;0.000;0.000;2022-12-05T05:51:02;101380.63;;;20.48
76007;BMP280;64699;0.000;0.000;2022-12-05T05:53:28;101374.66;;;20.44
76007;BMP280;64699;0.000;0.000;2022-12-05T05:55:53;101377.19;;;20.42
76007;BMP280;64699;0.000;0.000;2022-12-05T05:58:19;101388.44;;;20.44
76007;BMP280;64699;0.000;0.000;2022-12-05T06:00:44;101379.94;;;20.42
76007;BMP280;64699;0.000;0.000;2022-12-05T06:03:10;101379.47;;;20.38
76007;BMP280;64699;0.000;0.000;2022-12-05T06:05:35;101381.44;;;20.43
76007;BMP280;64699;0.000;0.000;2022-12-05T06:08:01;101379.75;;;20.40
76007;BMP280;64699;0.000;0.000;2022-12-05T06:10:26;101381.03;;;20.34
76007;BMP280;64699;0.000;0.000;2022-12-05T06:12:54;101368.44;;;20.38
76007;BMP280;64699;0.000;0.000;2022-12-05T06:15:19;101376.78;;;20.33
76007;BMP280;64699;0.000;0.000;2022-12-05T06:17:45;101374.56;;;20.31
76007;BMP280;64699;0.000;0.000;2022-12-05T06:20:10;101375.56;;;20.28
76007;BMP280;64699;0.000;0.000;2022-12-05T06:22:36;101377.59;;;20.28
76007;BMP280;64699;0.000;0.000;2022-12-05T06:25:01;101382.16;;;20.25
76007;BMP280;64699;0.000;0.000;2022-12-05T06:27:28;101379.84;;;20.29
76007;BMP280;64699;0.000;0.000;2022-12-05T06:29:54;101375.44;;;20.39
76007;BMP280;64699;0.000;0.000;2022-12-05T06:32:20;101368.13;;;20.42
76007;BMP280;64699;0.000;0.000;2022-12-05T06:34:45;101365.59;;;20.44
76007;BMP280;64699;0.000;0.000;2022-12-05T06:37:11;101374.41;;;20.42
76007;BMP280;64699;0.000;0.000;2022-12-05T06:39:37;101361.59;;;20.45
76007;BMP280;64699;0.000;0.000;2022-12-05T06:42:02;101364.88;;;20.43
76007;BMP280;64699;0.000;0.000;2022-12-05T06:44:28;101364.88;;;20.43
76007;BMP280;64699;0.000;0.000;2022-12-05T06:46:54;101365.59;;;20.44
76007;BMP280;64699;0.000;0.000;2022-12-05T06:49:21;101363.50;;;20.50
76007;BMP280;64699;0.000;0.000;2022-12-05T06:51:46;101363.50;;;20.50
76007;BMP280;64699;0.000;0.000;2022-12-05T06:54:12;101365.78;;;20.51
76007;BMP280;64699;0.000;0.000;2022-12-05T06:56:38;101377.25;;;20.55
76007;BMP280;64699;0.000;0.000;2022-12-05T06:59:04;101369.25;;;20.52
76007;BMP280;64699;0.000;0.000;2022-12-05T07:01:29;101375.81;;;20.49
76007;BMP280;64699;0.000;0.000;2022-12-05T07:04:14;101365.94;;;20.40
76007;BMP280;64699;0.000;0.000;2022-12-05T07:06:41;101365.94;;;20.40
76007;BMP280;64699;0.000;0.000;2022-12-05T07:09:06;101365.66;;;20.38
76007;BMP280;64699;0.000;0.000;2022-12-05T07:11:33;101363.97;;;20.35
76007;BMP280;64699;0.000;0.000;2022-12-05T07:13:58;101368.72;;;20.35
76007;BMP280;64699;0.000;0.000;2022-12-05T07:16:24;101370.00;;;20.34
76007;BMP280;64699;0.000;0.000;2022-12-05T07:18:49;101370.22;;;20.36
76007;BMP280;64699;0.000;0.000;2022-12-05T07:21:15;101373.25;;;20.32
76007;BMP280;64699;0.000;0.000;2022-12-05T07:23:41;101363.50;;;20.31
76007;BMP280;64699;0.000;0.000;2022-12-05T07:26:08;101360.81;;;20.26
76007;BMP280;64699;0.000;0.000;2022-12-05T07:28:34;101364.84;;;20.25
76007;BMP280;64699;0.000;0.000;2022-12-05T07:31:03;101355.59;;;20.22
76007;BMP280;64699;0.000;0.000;2022-12-05T07:33:29;101346.94;;;20.31
76007;BMP280;64699;0.000;0.000;2022-12-05T07:35:58;101351.75;;;20.31
76007;BMP280;64699;0.000;0.000;2022-12-05T07:38:24;101352.16;;;20.35
76007;BMP280;64699;0.000;0.000;2022-12-05T07:40:49;101360.41;;;20.40
76007;BMP280;64699;0.000;0.000;2022-12-05T07:43:15;101357.56;;;20.46
76007;BMP280;64699;0.000;0.000;2022-12-05T07:45:40;101369.59;;;20.48
76007;BMP280;64699;0.000;0.000;2022-12-05T07:48:05;101353.38;;;20.39
76007;BMP280;64699;0.000;0.000;2022-12-05T07:50:31;101362.00;;;20.30
76007;BMP280;64699;0.000;0.000;2022-12-05T07:52:56;101356.44;;;20.12
76007;BMP280;64699;0.000;0.000;2022-12-05T07:55:22;101346.28;;;20.01
76007;BMP280;64699;0.000;0.000;2022-12-05T07:57:47;101355.50;;;19.86
76007;BMP280;64699;0.000;0.000;2022-12-05T08:00:13;101348.63;;;19.98
76007;BMP280;64699;0.000;0.000;2022-12-05T08:02:38;101350.78;;;20.04
76007;BMP280;64699;0.000;0.000;2022-12-05T08:05:04;101340.16;;;20.14
76007;BMP280;64699;0.000;0.000;2022-12-05T08:07:30;101349.09;;;20.20
76007;BMP280;64699;0.000;0.000;2022-12-05T08:09:55;101349.16;;;20.14
76007;BMP280;64699;0.000;0.000;2022-12-05T08:12:21;101348.88;;;20.18
76007;BMP280;64699;0.000;0.000;2022-12-05T08:14:46;101340.28;;;20.21
76007;BMP280;64699;0.000;0.000;2022-12-05T08:17:11;101339.25;;;20.24
76007;BMP280;64699;0.000;0.000;2022-12-05T08:19:37;101342.00;;;20.24
76007;BMP280;64699;0.000;0.000;2022-12-05T08:22:02;101340.53;;;20.23
76007;BMP280;64699;0.000;0.000;2022-12-05T08:24:28;101338.00;;;20.25
76007;BMP280;64699;0.000;0.000;2022-12-05T08:26:53;101345.22;;;20.28
76007;BMP280;64699;0.000;0.000;2022-12-05T08:29:19;101334.88;;;20.34
76007;BMP280;64699;0.000;0.000;2022-12-05T08:31:46;101341.91;;;20.35
76007;BMP280;64699;0.000;0.000;2022-12-05T08:34:12;101340.41;;;20.34
76007;BMP280;64699;0.000;0.000;2022-12-05T08:36:38;101337.09;;;20.36
76007;BMP280;64699;0.000;0.000;2022-12-05T08:39:05;101338.13;;;20.33
76007;BMP280;64699;0.000;0.000;2022-12-05T08:41:30;101338.06;;;20.38
76007;BMP280;64699;0.000;0.000;2022-12-05T08:43:57;101339.34;;;20.37
76007;BMP280;64699;0.000;0.000;2022-12-05T08:46:23;101337.63;;;20.34
76007;BMP280;64699;0.000;0.000;2022-12-05T08:48:48;101349.38;;;20.40
76007;BMP280;64699;0.000;0.000;2022-12-05T08:51:14;101350.31;;;20.43
76007;BMP280;64699;0.000;0.000;2022-12-05T08:53:39;101345.44;;;20.49
76007;BMP280;64699;0.000;0.000;2022-12-05T08:56:06;101344.13;;;20.55
76007;BMP280;64699;0.000;0.000;2022-12-05T08:58:32;101350.38;;;20.37
76007;BMP280;64699;0.000;0.000;2022-12-05T09:01:08;101352.03;;;20.27
76007;BMP280;64699;0.000;0.000;2022-12-05T09:03:34;101347.00;;;20.26
76007;BMP280;64699;0.000;0.000;2022-12-05T09:06:06;101352.34;;;20.24
76007;BMP280;64699;0.000;0.000;2022-12-05T09:08:32;101341.78;;;20.22
76007;BMP280;64699;0.000;0.000;2022-12-05T09:10:58;101347.22;;;20.09
76007;BMP280;64699;0.000;0.000;2022-12-05T09:13:24;101337.75;;;19.81
76007;BMP280;64699;0.000;0.000;2022-12-05T09:15:49;101347.47;;;19.88
76007;BMP280;64699;0.000;0.000;2022-12-05T09:18:15;101338.00;;;20.07
76007;BMP280;64699;0.000;0.000;2022-12-05T09:20:40;101331.06;;;20.19
76007;BMP280;64699;0.000;0.000;2022-12-05T09:23:06;101321.44;;;20.25
76007;BMP280;64699;0.000;0.000;2022-12-05T09:25:31;101328.75;;;20.23
76007;BMP280;64699;0.000;0.000;2022-12-05T09:27:57;101319.66;;;20.28
76007;BMP280;64699;0.000;0.000;2022-12-05T09:30:22;101310.47;;;20.20
76007;BMP280;64699;0.000;0.000;2022-12-05T09:32:48;101314.72;;;20.02
76007;BMP280;64699;0.000;0.000;2022-12-05T09:35:13;101314.94;;;20.04
76007;BMP280;64699;0.000;0.000;2022-12-05T09:37:39;101308.44;;;20.02
76007;BMP280;64699;0.000;0.000;2022-12-05T09:40:05;101308.72;;;19.99
76007;BMP280;64699;0.000;0.000;2022-12-05T09:42:47;101302.75;;;20.13
76007;BMP280;64699;0.000;0.000;2022-12-05T09:45:20;101300.00;;;20.13
76007;BMP280;64699;0.000;0.000;2022-12-05T09:50:20;101292.25;;;19.93
76007;BMP280;64699;0.000;0.000;2022-12-05T09:52:53;101284.44;;;19.73
76007;BMP280;64699;0.000;0.000;2022-12-05T09:55:23;101283.16;;;19.74
76007;BMP280;64699;0.000;0.000;2022-12-05T09:57:53;101280.19;;;19.72
76007;BMP280;64699;0.000;0.000;2022-12-05T10:00:20;101278.06;;;19.60
76007;BMP280;64699;0.000;0.000;2022-12-05T10:05:37;101270.84;;;19.33
76007;BMP280;64699;0.000;0.000;2022-12-05T10:15:58;101257.53;;;19.61
76007;BMP280;64699;0.000;0.000;2022-12-05T10:18:33;101251.00;;;19.58
76007;BMP280;64699;0.000;0.000;2022-12-05T10:21:14;101247.34;;;19.50
76007;BMP280;64699;0.000;0.000;2022-12-05T10:26:15;101255.28;;;19.06
76007;BMP280;64699;0.000;0.000;2022-12-05T10:28:51;101254.69;;;19.18
76007;BMP280;64699;0.000;0.000;2022-12-05T10:31:23;101254.88;;;19.26
76007;BMP280;64699;0.000;0.000;2022-12-05T10:34:02;101250.38;;;19.47
76007;BMP280;64699;0.000;0.000;2022-12-05T10:36:28;101255.88;;;19.52
76007;BMP280;64699;0.000;0.000;2022-12-05T10:38:54;101256.50;;;19.64
76007;BMP280;64699;0.000;0.000;2022-12-05T10:41:21;101255.56;;;19.80
76007;BMP280;64699;0.000;0.000;2022-12-05T10:43:46;101255.03;;;19.99
76007;BMP280;64699;0.000;0.000;2022-12-05T10:46:13;101250.06;;;19.98
76007;BMP280;64699;0.000;0.000;2022-12-05T10:48:40;101247.28;;;19.80
76007;BMP280;64699;0.000;0.000;2022-12-05T10:51:06;101240.03;;;19.77
76007;BMP280;64699;0.000;0.000;2022-12-05T10:53:41;101236.47;;;19.82
76007;BMP280;64699;0.000;0.000;2022-12-05T10:58:54;101238.94;;;19.85
76007;BMP280;64699;0.000;0.000;2022-12-05T11:01:20;101227.34;;;20.10
76007;BMP280;64699;0.000;0.000;2022-12-05T11:03:46;101231.06;;;19.95
76007;BMP280;64699;0.000;0.000;2022-12-05T11:06:24;101239.00;;;19.80
76007;BMP280;64699;0.000;0.000;2022-12-05T11:08:51;101219.69;;;19.80
76007;BMP280;64699;0.000;0.000;2022-12-05T11:11:22;101223.06;;;19.73
76007;BMP280;64699;0.000;0.000;2022-12-05T11:13:55;101233.53;;;19.74
76007;BMP280;64699;0.000;0.000;2022-12-05T11:16:22;101220.28;;;19.73
76007;BMP280;64699;0.000;0.000;2022-12-05T11:18:48;101226.41;;;19.66
76007;BMP280;64699;0.000;0.000;2022-12-05T11:21:14;101217.59;;;19.67
76007;BMP280;64699;0.000;0.000;2022-12-05T11:23:42;101218.94;;;19.61
76007;BMP280;64699;0.000;0.000;2022-12-05T11:26:16;101212.41;;;19.58
76007;BMP280;64699;0.000;0.000;2022-12-05T11:28:41;101196.34;;;19.62
76007;BMP280;64699;0.000;0.000;2022-12-05T11:33:38;101201.53;;;19.90
76007;BMP280;64699;0.000;0.000;2022-12-05T11:36:22;101193.25;;;19.90
76007;BMP280;64699;0.000;0.000;2022-12-05T11:38:49;101175.59;;;19.98
76007;BMP280;64699;0.000;0.000;2022-12-05T11:59:17;101163.19;;;20.23
76007;BMP280;64699;0.000;0.000;2022-12-05T12:04:24;101157.38;;;20.08
76007;BMP280;64699;0.000;0.000;2022-12-05T12:07:15;101157.97;;;20.01
76007;BMP280;64699;0.000;0.000;2022-12-05T12:20:02;101163.66;;;19.90
76007;BMP280;64699;0.000;0.000;2022-12-05T12:25:23;101165.22;;;19.86
76007;BMP280;64699;0.000;0.000;2022-12-05T12:30:23;101167.53;;;19.82
76007;BMP280;64699;0.000;0.000;2022-12-05T12:33:02;101165.44;;;19.88
76007;BMP280;64699;0.000;0.000;2022-12-05T12:35:30;101163.50;;;19.83
76007;BMP280;64699;0.000;0.000;2022-12-05T12:41:06;101149.94;;;19.85
76007;BMP280;64699;0.000;0.000;2022-12-05T12:43:45;101150.53;;;19.78
76007;BMP280;64699;0.000;0.000;2022-12-05T12:46:58;101142.38;;;20.03
76007;BMP280;64699;0.000;0.000;2022-12-05T12:51:42;101138.75;;;20.14
76007;BMP280;64699;0.000;0.000;2022-12-05T12:57:11;101137.91;;;20.50
76007;BMP280;64699;0.000;0.000;2022-12-05T13:02:21;101148.91;;;20.06
76007;BMP280;64699;0.000;0.000;2022-12-05T13:05:33;101144.59;;;19.74
76007;BMP280;64699;0.000;0.000;2022-12-05T13:07:52;101150.50;;;19.59
76007;BMP280;64699;0.000;0.000;2022-12-05T13:10:29;101131.31;;;19.72
76007;BMP280;64699;0.000;0.000;2022-12-05T13:12:58;101133.66;;;19.63
76007;BMP280;64699;0.000;0.000;2022-12-05T13:15:32;101145.53;;;19.58
76007;BMP280;64699;0.000;0.000;2022-12-05T13:17:59;101133.03;;;19.57
76007;BMP280;64699;0.000;0.000;2022-12-05T13:20:26;101138.75;;;19.59
76007;BMP280;64699;0.000;0.000;2022-12-05T13:22:52;101136.97;;;19.80
76007;BMP280;64699;0.000;0.000;2022-12-05T13:25:18;101137.66;;;20.35
76007;BMP280;64699;0.000;0.000;2022-12-05T13:27:59;101139.84;;;20.81
76007;BMP280;64699;0.000;0.000;2022-12-05T13:30:26;101142.19;;;20.90
76007;BMP280;64699;0.000;0.000;2022-12-05T13:33:00;101139.22;;;21.01
76007;BMP280;64699;0.000;0.000;2022-12-05T13:35:32;101138.19;;;21.04
76007;BMP280;64699;0.000;0.000;2022-12-05T13:38:19;101131.91;;;20.46
76007;BMP280;64699;0.000;0.000;2022-12-05T13:41:04;101123.97;;;20.43
76007;BMP280;64699;0.000;0.000;2022-12-05T13:43:49;101120.53;;;20.24
76007;BMP280;64699;0.000;0.000;2022-12-05T13:46:29;101130.38;;;20.19
76007;BMP280;64699;0.000;0.000;2022-12-05T13:49:00;101111.75;;;20.07
76007;BMP280;64699;0.000;0.000;2022-12-05T13:51:32;101100.16;;;20.08
76007;BMP280;64699;0.000;0.000;2022-12-05T13:53:59;101107.22;;;20.09
76007;BMP280;64699;0.000;0.000;2022-12-05T13:59:12;101118.41;;;19.99
76007;BMP280;64699;0.000;0.000;2022-12-05T14:01:41;101114.84;;;19.85
76007;BMP280;64699;0.000;0.000;2022-12-05T14:04:20;101118.34;;;19.86
76007;BMP280;64699;0.000;0.000;2022-12-05T14:17:11;101118.25;;;19.91
76007;BMP280;64699;0.000;0.000;2022-12-05T14:19:48;101107.75;;;19.90
76007;BMP280;64699;0.000;0.000;2022-12-05T14:22:19;101099.69;;;19.92
76007;BMP280;64699;0.000;0.000;2022-12-05T14:24:56;101100.78;;;20.01
76007;BMP280;64699;0.000;0.000;2022-12-05T14:32:38;101094.47;;;20.06
76007;BMP280;64699;0.000;0.000;2022-12-05T14:35:14;101096.69;;;20.08
76007;BMP280;64699;0.000;0.000;2022-12-05T14:37:53;101095.41;;;20.09
76007;BMP280;64699;0.000;0.000;2022-12-05T14:40:26;101097.28;;;20.19
76007;BMP280;64699;0.000;0.000;2022-12-05T14:42:58;101083.47;;;20.32
76007;BMP280;64699;0.000;0.000;2022-12-05T14:45:36;101080.41;;;20.23
76007;BMP280;64699;0.000;0.000;2022-12-05T14:50:46;101072.78;;;20.29
76007;BMP280;64699;0.000;0.000;2022-12-05T14:55:42;101081.28;;;20.44
76007;BMP280;64699;0.000;0.000;2022-12-05T14:58:30;101070.34;;;20.38
76007;BMP280;64699;0.000;0.000;2022-12-05T15:03:36;101062.72;;;20.44
76007;BMP280;64699;0.000;0.000;2022-12-05T15:06:04;101057.84;;;20.50
76007;BMP280;64699;0.000;0.000;2022-12-05T15:08:33;101052.53;;;20.52
76007;BMP280;64699;0.000;0.000;2022-12-05T15:11:04;101050.50;;;20.40
76007;BMP280;64699;0.000;0.000;2022-12-05T15:13:30;101046.97;;;20.26
76007;BMP280;64699;0.000;0.000;2022-12-05T15:16:01;101040.34;;;20.16
76007;BMP280;64699;0.000;0.000;2022-12-05T15:18:33;101047.88;;;20.16
76007;BMP280;64699;0.000;0.000;2022-12-05T15:21:06;101050.38;;;20.19
76007;BMP280;64699;0.000;0.000;2022-12-05T15:24:15;101051.00;;;20.25
76007;BMP280;64699;0.000;0.000;2022-12-05T15:26:22;101050.78;;;20.23
76007;BMP280;64699;0.000;0.000;2022-12-05T15:31:27;101048.25;;;20.25
76007;BMP280;64699;0.000;0.000;2022-12-05T15:33:54;101052.50;;;20.26
76007;BMP280;64699;0.000;0.000;2022-12-05T15:36:22;101048.03;;;20.23
76007;BMP280;64699;0.000;0.000;2022-12-05T15:38:50;101055.75;;;20.25
76007;BMP280;64699;0.000;0.000;2022-12-05T15:41:20;101050.59;;;20.34
76007;BMP280;64699;0.000;0.000;2022-12-05T15:43:55;101047.84;;;20.34
76007;BMP280;64699;0.000;0.000;2022-12-05T15:46:22;101042.41;;;20.29
76007;BMP280;64699;0.000;0.000;2022-12-05T15:48:49;101046.34;;;20.33
76007;BMP280;64699;0.000;0.000;2022-12-05T15:51:15;101039.88;;;20.31
76007;BMP280;64699;0.000;0.000;2022-12-05T15:58:37;101034.88;;;20.29
76007;BMP280;64699;0.000;0.000;2022-12-05T16:01:12;101046.03;;;20.37
76007;BMP280;64699;0.000;0.000;2022-12-05T16:06:16;101033.09;;;20.32
76007;BMP280;64699;0.000;0.000;2022-12-05T16:08:45;101029.34;;;20.29
76007;BMP280;64699;0.000;0.000;2022-12-05T16:11:12;101032.22;;;20.24
76007;BMP280;64699;0.000;0.000;2022-12-05T16:13:41;101035.13;;;20.13
76007;BMP280;64699;0.000;0.000;2022-12-05T16:16:21;101024.88;;;20.13
76007;BMP280;64699;0.000;0.000;2022-12-05T16:18:54;101025.09;;;20.15
76007;BMP280;64699;0.000;0.000;2022-12-05T16:21:33;101025.72;;;20.21
76007;BMP280;64699;0.000;0.000;2022-12-05T16:24:17;101026.41;;;20.27
76007;BMP280;64699;0.000;0.000;2022-12-05T16:26:50;101031.59;;;20.31
76007;BMP280;64699;0.000;0.000;2022-12-05T16:29:31;101024.69;;;20.37
76007;BMP280;64699;0.000;0.000;2022-12-05T16:31:57;101020.13;;;20.27
76007;BMP280;64699;0.000;0.000;2022-12-05T16:34:24;101019.13;;;20.24
76007;BMP280;64699;0.000;0.000;2022-12-05T16:36:50;101018.75;;;20.33
76007;BMP280;64699;0.000;0.000;2022-12-05T16:39:16;101011.09;;;20.26
76007;BMP280;64699;0.000;0.000;2022-12-05T16:41:43;101008.03;;;20.30